Terminal Aerodrome Forecast
Issued by NWS

Home | Current Version | Previous Version | Text Only | Print | Product List | Glossary On
Versions: 1 2 3 4 5 6 7 8 9 10 11 12 13 14 15
000
FTUS46 KSGX 262337
TAFCRQ
TAF
KCRQ 262337Z 2700/2724 22008KT P6SM SCT250
     FM270200 VRB05KT P6SM SCT010 SCT250
     FM270500 16005KT P6SM OVC010
     FM271600 18010KT P6SM BKN012 BKN250
     FM272000 20010KT P6SM SCT012 SCT250
     FM272330 23010KT P6SM BKN015 BKN250=

USA.gov is the U.S. government's official web portal to all federal, state and local government web resources and services.